Time;durP1;ratioP1;P1;durP2;ratioP2;P2;SDS_P1;SDS_P2;PMS_P1;PMS_P2;Temp;Humidity;BMP_temperature;BMP_pressure;BME280_temperature;BME280_humidity;BME280_pressure;Samples;Min_cycle;Max_cycle;Signal;HPM_P1;HPM_P2
2022/05/14 00:00:58;;;;;;;8.90;3.90;;;9.50;99.90;;;;;;4196652;28;20195;-67
2022/05/14 00:02:59;;;;;;;6.30;4.10;;;9.40;99.90;;;;;;4196267;28;20270;-67
2022/05/14 00:04:59;;;;;;;9.70;4.40;;;9.40;99.90;;;;;;4195992;28;20418;-67
2022/05/14 00:07:00;;;;;;;6.60;4.47;;;9.40;99.90;;;;;;4195513;28;20180;-67
2022/05/14 00:09:05;;;;;;;6.47;4.20;;;9.40;99.90;;;;;;4195730;28;20210;-67
2022/05/14 00:13:25;;;;;;;4.23;3.40;;;9.40;99.90;;;;;;4195575;28;20193;-67
2022/05/14 00:15:26;;;;;;;6.87;4.13;;;9.40;99.90;;;;;;4195749;28;20641;-67
2022/05/14 00:17:26;;;;;;;6.83;4.07;;;9.30;99.90;;;;;;4196118;28;20606;-67
2022/05/14 00:19:27;;;;;;;5.00;3.57;;;9.30;99.90;;;;;;4196330;28;20192;-67
2022/05/14 00:21:28;;;;;;;4.90;3.87;;;9.40;99.90;;;;;;4196337;28;20226;-67
2022/05/14 00:23:28;;;;;;;9.03;4.03;;;9.40;99.90;;;;;;4196287;28;20186;-67
2022/05/14 00:25:29;;;;;;;6.03;3.57;;;9.40;99.90;;;;;;4195506;28;20233;-67
2022/05/14 00:27:30;;;;;;;8.93;3.83;;;9.40;99.90;;;;;;4195898;28;20206;-67
2022/05/14 00:29:30;;;;;;;4.47;2.97;;;9.40;99.90;;;;;;4196102;28;20186;-67
2022/05/14 00:31:31;;;;;;;4.80;3.60;;;9.40;99.90;;;;;;4196157;28;20202;-67
2022/05/14 00:33:32;;;;;;;5.60;3.23;;;9.30;99.90;;;;;;4196298;28;20185;-67
2022/05/14 00:35:33;;;;;;;5.73;3.37;;;9.20;99.90;;;;;;4195551;28;20181;-67
2022/05/14 00:37:34;;;;;;;7.07;3.37;;;9.20;99.90;;;;;;4195052;28;20334;-67
2022/05/14 00:39:35;;;;;;;5.43;3.27;;;9.20;99.90;;;;;;4196393;28;20570;-67
2022/05/14 00:41:36;;;;;;;4.97;3.20;;;9.20;99.90;;;;;;4196154;28;20482;-67
2022/05/14 00:43:53;;;;;;;11.57;3.37;;;9.20;99.90;;;;;;4196075;28;20278;-67
2022/05/14 00:46:14;;;;;;;4.90;3.40;;;9.10;99.90;;;;;;4195386;28;20185;-67
2022/05/14 00:48:15;;;;;;;6.10;3.33;;;9.20;99.90;;;;;;4194651;28;20290;-67
2022/05/14 00:50:23;;;;;;;3.97;3.00;;;9.20;99.90;;;;;;4196202;28;20717;-66
2022/05/14 00:52:24;;;;;;;6.23;2.97;;;9.20;99.90;;;;;;4195846;28;20591;-67
2022/05/14 00:54:35;;;;;;;4.60;3.00;;;9.20;99.90;;;;;;4197893;28;20426;-67
2022/05/14 00:56:43;;;;;;;4.40;3.17;;;9.30;99.90;;;;;;4198404;28;20176;-67
2022/05/14 00:58:55;;;;;;;4.90;2.90;;;9.20;99.90;;;;;;4198850;28;20213;-67
2022/05/14 01:00:55;;;;;;;6.43;3.40;;;9.30;99.90;;;;;;4199191;28;20233;-67
2022/05/14 01:02:56;;;;;;;4.63;3.20;;;9.20;99.90;;;;;;4198917;28;20194;-67
2022/05/14 01:04:58;;;;;;;3.27;2.70;;;9.30;99.90;;;;;;4198420;28;20195;-67
2022/05/14 01:07:12;;;;;;;3.90;2.93;;;9.30;99.90;;;;;;4198039;28;20198;-67
2022/05/14 01:09:13;;;;;;;5.23;2.90;;;9.30;99.90;;;;;;4198558;28;20184;-67
2022/05/14 01:11:15;;;;;;;4.67;2.77;;;9.30;99.90;;;;;;4198594;28;20204;-67
2022/05/14 01:13:15;;;;;;;5.33;2.90;;;9.30;99.90;;;;;;4198427;28;20543;-66
2022/05/14 01:15:22;;;;;;;3.67;3.13;;;9.20;99.90;;;;;;4213733;28;20186;-67
2022/05/14 01:17:23;;;;;;;6.03;3.20;;;9.10;99.90;;;;;;4198742;28;20639;-67
2022/05/14 01:19:23;;;;;;;3.43;3.00;;;9.00;99.90;;;;;;4198358;28;20180;-67
2022/05/14 01:21:38;;;;;;;4.23;2.70;;;8.90;99.90;;;;;;4198062;28;20577;-67
2022/05/14 01:26:29;;;;;;;4.20;2.90;;;8.80;99.90;;;;;;4196661;28;20459;-67
2022/05/14 01:28:30;;;;;;;3.77;2.27;;;8.80;99.90;;;;;;4198350;28;20496;-67
2022/05/14 01:30:31;;;;;;;3.17;2.57;;;8.60;99.90;;;;;;4198462;28;20466;-66
2022/05/14 01:32:31;;;;;;;3.80;2.37;;;8.60;99.90;;;;;;4197429;28;20224;-67
2022/05/14 01:34:33;;;;;;;4.80;2.63;;;8.60;99.90;;;;;;4197270;28;20185;-67
2022/05/14 01:36:35;;;;;;;4.10;2.57;;;8.60;99.90;;;;;;4196279;28;20241;-67
2022/05/14 01:38:36;;;;;;;5.50;2.50;;;8.70;99.90;;;;;;4196791;28;20415;-66
2022/05/14 01:40:37;;;;;;;4.30;2.50;;;8.70;99.90;;;;;;4196854;28;20449;-67
2022/05/14 01:42:37;;;;;;;4.40;2.47;;;8.60;99.90;;;;;;4197042;28;20596;-67
2022/05/14 01:44:38;;;;;;;3.67;2.40;;;8.60;99.90;;;;;;4198079;28;20179;-67
2022/05/14 01:46:38;;;;;;;2.90;2.30;;;8.70;99.90;;;;;;4197570;28;20206;-67
2022/05/14 01:48:39;;;;;;;5.53;2.60;;;8.60;99.90;;;;;;4198268;28;20211;-67
2022/05/14 01:50:41;;;;;;;4.40;2.33;;;8.60;99.90;;;;;;4197737;28;20249;-67
2022/05/14 01:52:41;;;;;;;3.30;2.17;;;8.60;99.90;;;;;;4198296;28;20213;-67
2022/05/14 01:54:42;;;;;;;7.30;2.97;;;8.60;99.90;;;;;;4198021;28;20411;-67
2022/05/14 01:56:42;;;;;;;5.47;2.30;;;8.60;99.90;;;;;;4197596;28;20697;-67
2022/05/14 01:58:43;;;;;;;5.60;2.50;;;8.50;99.90;;;;;;4198209;28;20277;-67
2022/05/14 02:00:44;;;;;;;3.87;2.70;;;8.50;99.90;;;;;;4197864;28;20693;-66
2022/05/14 02:02:44;;;;;;;5.00;2.53;;;8.40;99.90;;;;;;4196451;28;20218;-67
2022/05/14 02:04:45;;;;;;;4.40;2.67;;;8.40;99.90;;;;;;4197118;28;20184;-67
2022/05/14 02:06:45;;;;;;;3.23;2.40;;;8.30;99.90;;;;;;4195439;28;20175;-67
2022/05/14 02:08:46;;;;;;;4.13;2.20;;;8.20;99.90;;;;;;4195777;28;20199;-67
2022/05/14 02:10:46;;;;;;;5.87;2.80;;;8.20;99.90;;;;;;4189613;28;20239;-67
2022/05/14 02:12:47;;;;;;;3.33;2.77;;;8.20;99.90;;;;;;4195496;28;20643;-67
2022/05/14 02:14:48;;;;;;;3.07;2.40;;;8.30;99.90;;;;;;4195600;28;20257;-67
2022/05/14 02:16:48;;;;;;;10.00;3.57;;;8.30;99.90;;;;;;4194890;28;20349;-67
2022/05/14 02:18:49;;;;;;;4.40;2.30;;;8.40;99.90;;;;;;4195401;28;20221;-66
2022/05/14 02:20:49;;;;;;;4.13;2.47;;;8.50;99.90;;;;;;4195627;28;20731;-67
2022/05/14 02:22:51;;;;;;;6.80;3.00;;;8.50;99.90;;;;;;4195567;28;20186;-67
2022/05/14 02:24:54;;;;;;;4.80;2.73;;;8.50;99.90;;;;;;4195638;28;20657;-67
2022/05/14 02:26:54;;;;;;;4.37;2.37;;;8.50;99.90;;;;;;4193343;28;20438;-67
2022/05/14 02:28:55;;;;;;;3.47;2.43;;;8.50;99.90;;;;;;4194981;28;20472;-67
2022/05/14 02:30:56;;;;;;;3.87;2.40;;;8.50;99.90;;;;;;4195650;28;20223;-67
2022/05/14 02:32:56;;;;;;;2.87;2.30;;;8.50;99.90;;;;;;4195481;28;20441;-67
2022/05/14 02:34:58;;;;;;;4.90;2.20;;;8.50;99.90;;;;;;4195341;28;20185;-67
2022/05/14 02:36:59;;;;;;;3.90;2.30;;;8.50;99.90;;;;;;4194891;28;20168;-67
2022/05/14 02:38:59;;;;;;;4.10;2.40;;;8.40;99.90;;;;;;4195396;28;20412;-67
2022/05/14 02:41:00;;;;;;;4.13;2.40;;;8.40;99.90;;;;;;4195314;28;20197;-67
2022/05/14 02:43:00;;;;;;;4.53;2.47;;;8.30;99.90;;;;;;4195259;28;20195;-67
2022/05/14 02:45:02;;;;;;;3.73;2.50;;;8.20;99.90;;;;;;4194960;28;20179;-67
2022/05/14 02:47:03;;;;;;;5.87;2.70;;;8.10;99.90;;;;;;4194700;28;20176;-67
2022/05/14 02:49:03;;;;;;;3.90;3.13;;;8.10;99.90;;;;;;4194955;28;20459;-67
2022/05/14 02:51:04;;;;;;;5.80;2.60;;;8.10;99.90;;;;;;4194987;28;20210;-67
2022/05/14 02:53:05;;;;;;;5.30;2.17;;;8.00;99.90;;;;;;4195062;28;20550;-67
2022/05/14 02:55:06;;;;;;;3.47;2.37;;;8.10;99.90;;;;;;4194455;28;20180;-67
2022/05/14 02:57:07;;;;;;;3.50;2.30;;;8.00;99.90;;;;;;4194540;28;20414;-67
2022/05/14 02:59:08;;;;;;;4.97;2.30;;;8.00;99.90;;;;;;4195265;28;20426;-67
2022/05/14 03:01:08;;;;;;;3.50;2.70;;;8.00;99.90;;;;;;4194929;28;20252;-67
2022/05/14 03:03:09;;;;;;;3.47;2.47;;;8.00;99.90;;;;;;4195026;28;20217;-67
2022/05/14 03:05:12;;;;;;;3.77;2.40;;;7.90;99.90;;;;;;4194874;28;20187;-67
2022/05/14 03:07:12;;;;;;;5.67;2.73;;;8.00;99.90;;;;;;4194867;28;20172;-67
2022/05/14 03:09:13;;;;;;;4.07;2.40;;;7.90;99.90;;;;;;4195015;28;20492;-67
2022/05/14 03:11:13;;;;;;;4.83;2.30;;;7.90;99.90;;;;;;4195573;28;20268;-67
2022/05/14 03:13:14;;;;;;;3.23;2.60;;;7.90;99.90;;;;;;4195082;28;20565;-67
2022/05/14 03:15:15;;;;;;;4.60;2.57;;;7.80;99.90;;;;;;4194759;28;20252;-67
2022/05/14 03:17:16;;;;;;;6.90;2.77;;;7.70;99.90;;;;;;4194261;28;20639;-67
2022/05/14 03:19:16;;;;;;;3.40;2.57;;;7.70;99.90;;;;;;4194897;28;20191;-67
2022/05/14 03:21:17;;;;;;;3.73;2.50;;;7.60;99.90;;;;;;4194841;28;20477;-67
2022/05/14 03:23:17;;;;;;;3.87;2.00;;;7.60;99.90;;;;;;4195069;28;20187;-67
2022/05/14 03:25:18;;;;;;;4.23;2.43;;;7.70;99.90;;;;;;4194801;28;20672;-67
2022/05/14 03:27:18;;;;;;;3.47;2.23;;;7.60;99.90;;;;;;4194534;28;20180;-67
2022/05/14 03:29:19;;;;;;;5.50;2.17;;;7.60;99.90;;;;;;4195010;28;20187;-67
2022/05/14 03:31:20;;;;;;;4.23;2.27;;;7.60;99.90;;;;;;4194392;28;20617;-67
2022/05/14 03:33:20;;;;;;;4.27;2.10;;;7.60;99.90;;;;;;4194749;28;20254;-67
2022/05/14 03:35:21;;;;;;;4.37;2.60;;;7.50;99.90;;;;;;4194236;28;20233;-67
2022/05/14 03:37:23;;;;;;;2.57;2.23;;;7.50;99.90;;;;;;4194842;28;20175;-67
2022/05/14 03:39:24;;;;;;;3.37;1.87;;;7.50;99.90;;;;;;4194942;28;20187;-66
2022/05/14 03:41:24;;;;;;;3.83;2.40;;;7.40;99.90;;;;;;4194700;28;20487;-67
2022/05/14 03:43:25;;;;;;;4.53;2.10;;;7.40;99.90;;;;;;4194847;28;20180;-66
2022/05/14 03:45:25;;;;;;;2.87;2.40;;;7.40;99.90;;;;;;4194154;28;20752;-67
2022/05/14 03:47:26;;;;;;;2.67;2.00;;;7.40;99.90;;;;;;4194598;28;20193;-66
2022/05/14 03:49:26;;;;;;;4.53;2.50;;;7.40;99.90;;;;;;4194668;28;20196;-67
2022/05/14 03:51:28;;;;;;;6.10;2.47;;;7.40;99.90;;;;;;4194761;28;20725;-66
2022/05/14 03:53:29;;;;;;;3.93;2.57;;;7.40;99.90;;;;;;4194610;28;20184;-66
2022/05/14 03:55:29;;;;;;;4.37;2.50;;;7.40;99.90;;;;;;4193983;28;21014;-67
2022/05/14 03:57:30;;;;;;;4.33;2.60;;;7.40;99.90;;;;;;4194750;28;20184;-67
2022/05/14 03:59:31;;;;;;;5.23;2.17;;;7.40;99.90;;;;;;4195303;28;20549;-67
2022/05/14 04:01:31;;;;;;;2.73;2.23;;;7.40;99.90;;;;;;4194437;28;20735;-66
2022/05/14 04:03:33;;;;;;;3.40;2.33;;;7.50;99.90;;;;;;4194472;28;20183;-67
2022/05/14 04:05:34;;;;;;;2.80;2.20;;;7.60;99.90;;;;;;4194091;28;20179;-66
2022/05/14 04:07:34;;;;;;;4.70;2.40;;;7.50;99.90;;;;;;4194651;28;20463;-67
2022/05/14 04:09:35;;;;;;;3.37;2.27;;;7.60;99.90;;;;;;4194613;28;20188;-67
2022/05/14 04:11:37;;;;;;;2.27;1.90;;;7.80;99.90;;;;;;4194654;28;20685;-67
2022/05/14 04:13:37;;;;;;;4.10;2.07;;;8.00;99.90;;;;;;4194451;28;20179;-67
2022/05/14 04:15:38;;;;;;;4.47;2.37;;;8.10;99.90;;;;;;4193932;28;20418;-67
2022/05/14 04:17:39;;;;;;;5.23;2.20;;;8.20;99.90;;;;;;4194649;28;20185;-66
2022/05/14 04:19:39;;;;;;;3.17;2.10;;;8.40;99.90;;;;;;4193607;28;20495;-66
2022/05/14 04:21:40;;;;;;;5.90;2.70;;;8.50;99.90;;;;;;4194390;28;20223;-67
2022/05/14 04:23:40;;;;;;;2.80;2.00;;;8.70;99.90;;;;;;4194464;28;20177;-67
2022/05/14 04:25:41;;;;;;;4.17;1.50;;;8.70;99.90;;;;;;4193805;28;20188;-67
2022/05/14 04:27:42;;;;;;;2.37;2.03;;;8.90;99.90;;;;;;4195853;28;20196;-67
2022/05/14 04:29:42;;;;;;;2.37;1.80;;;8.80;99.90;;;;;;4197471;28;20640;-67
2022/05/14 04:31:43;;;;;;;4.77;1.93;;;8.80;99.90;;;;;;4197504;28;20253;-67
2022/05/14 04:33:44;;;;;;;2.77;2.00;;;8.90;99.90;;;;;;4197454;28;20213;-67
2022/05/14 04:35:45;;;;;;;4.47;1.97;;;9.00;99.90;;;;;;4196825;28;20417;-67
2022/05/14 04:37:45;;;;;;;3.60;2.00;;;9.00;99.90;;;;;;4197536;28;20244;-67
2022/05/14 04:39:46;;;;;;;2.40;2.20;;;9.20;99.90;;;;;;4197668;28;20411;-67
2022/05/14 04:41:46;;;;;;;2.27;2.00;;;9.10;99.90;;;;;;4197271;28;20205;-66
2022/05/14 04:43:47;;;;;;;3.77;2.00;;;9.20;99.90;;;;;;4197286;28;20180;-67
2022/05/14 04:45:48;;;;;;;2.77;1.60;;;9.10;99.90;;;;;;4196654;28;20180;-67
2022/05/14 04:47:48;;;;;;;2.23;1.77;;;9.10;99.90;;;;;;4197208;28;20199;-67
2022/05/14 04:49:49;;;;;;;3.83;2.00;;;9.10;99.90;;;;;;4197294;28;20211;-67
2022/05/14 04:51:50;;;;;;;4.03;2.30;;;9.00;99.90;;;;;;4197177;28;20199;-66
2022/05/14 04:53:51;;;;;;;6.17;2.00;;;9.00;99.90;;;;;;4197297;28;20175;-67
2022/05/14 04:55:51;;;;;;;6.03;1.97;;;9.10;99.90;;;;;;4196507;28;20176;-67
2022/05/14 04:57:53;;;;;;;1.87;1.50;;;9.10;99.90;;;;;;4197252;28;20195;-67
2022/05/14 04:59:53;;;;;;;1.87;1.67;;;9.20;99.90;;;;;;4197176;28;20187;-67
2022/05/14 05:04:16;;;;;;;3.53;1.30;;;9.40;99.90;;;;;;4196751;28;20268;-67
2022/05/14 05:06:18;;;;;;;3.87;1.70;;;9.30;99.90;;;;;;4196529;28;20187;-67
2022/05/14 05:08:21;;;;;;;3.60;2.00;;;9.30;99.90;;;;;;4196876;28;20294;-67
2022/05/14 05:10:21;;;;;;;2.70;2.10;;;9.10;99.90;;;;;;4196941;28;20688;-67
2022/05/14 05:12:22;;;;;;;4.80;1.73;;;9.10;99.90;;;;;;4197000;28;20185;-67
2022/05/14 05:14:23;;;;;;;4.57;2.30;;;9.10;99.90;;;;;;4196956;28;20264;-67
2022/05/14 05:16:23;;;;;;;2.80;1.77;;;9.00;99.90;;;;;;4196241;28;20279;-67
2022/05/14 05:18:24;;;;;;;1.93;1.80;;;9.10;99.90;;;;;;4196673;28;20229;-67
2022/05/14 05:20:24;;;;;;;4.87;2.10;;;9.00;99.90;;;;;;4196422;28;20586;-67
2022/05/14 05:22:25;;;;;;;2.70;1.70;;;9.00;99.90;;;;;;4196866;28;20214;-67
2022/05/14 05:24:25;;;;;;;4.20;1.57;;;9.10;99.90;;;;;;4196590;28;20201;-67
2022/05/14 05:26:26;;;;;;;4.03;1.70;;;9.10;99.90;;;;;;4195717;28;20191;-67
2022/05/14 05:28:27;;;;;;;3.23;2.00;;;9.10;99.90;;;;;;4196414;28;20768;-67
2022/05/14 05:30:28;;;;;;;1.90;1.57;;;9.20;99.90;;;;;;4196666;28;20198;-67
2022/05/14 05:32:28;;;;;;;4.57;1.63;;;9.20;99.90;;;;;;4196702;28;20232;-67
2022/05/14 05:34:29;;;;;;;5.10;1.93;;;9.30;99.90;;;;;;4196640;28;20181;-67
2022/05/14 05:36:30;;;;;;;2.63;1.80;;;9.40;99.90;;;;;;4195939;28;20186;-67
2022/05/14 05:38:30;;;;;;;4.50;1.73;;;9.40;99.90;;;;;;4196551;28;20279;-67
2022/05/14 05:40:31;;;;;;;1.50;1.23;;;9.50;99.90;;;;;;4196197;28;20210;-67
2022/05/14 05:42:32;;;;;;;2.50;1.63;;;9.70;99.90;;;;;;4196626;28;20205;-67
2022/05/14 05:44:32;;;;;;;2.00;1.70;;;9.80;99.90;;;;;;4196575;28;20687;-67
2022/05/14 05:46:33;;;;;;;3.17;1.90;;;10.00;99.90;;;;;;4195694;28;20180;-67
2022/05/14 05:48:34;;;;;;;2.73;1.80;;;10.20;99.90;;;;;;4196187;28;20568;-67
2022/05/14 05:50:37;;;;;;;5.27;1.70;;;10.40;99.90;;;;;;4196056;28;20196;-67
2022/05/14 05:52:38;;;;;;;3.17;1.80;;;10.60;99.90;;;;;;4196237;28;20182;-67
2022/05/14 05:57:00;;;;;;;2.83;1.70;;;10.90;99.90;;;;;;4195637;28;20205;-67
2022/05/14 05:59:00;;;;;;;1.60;1.50;;;11.10;99.90;;;;;;4196109;28;20206;-67
2022/05/14 06:01:01;;;;;;;2.10;1.63;;;11.20;99.90;;;;;;4196142;28;20202;-67
2022/05/14 06:03:01;;;;;;;4.10;2.07;;;11.30;99.90;;;;;;4196089;28;20259;-67
2022/05/14 06:05:02;;;;;;;2.87;1.80;;;11.40;99.90;;;;;;4195902;28;20251;-67
2022/05/14 06:07:03;;;;;;;3.43;2.00;;;11.40;99.90;;;;;;4195614;28;20184;-67
2022/05/14 06:09:04;;;;;;;1.90;1.50;;;11.30;99.90;;;;;;4195889;28;20232;-67
2022/05/14 06:11:04;;;;;;;3.03;1.43;;;11.20;99.90;;;;;;4195902;28;20278;-67
2022/05/14 06:13:08;;;;;;;2.13;1.53;;;11.30;99.90;;;;;;4195806;28;20176;-67
2022/05/14 06:15:11;;;;;;;2.07;1.53;;;11.30;99.90;;;;;;4195949;28;20186;-67
2022/05/14 06:17:11;;;;;;;4.50;1.50;;;11.40;99.90;;;;;;4195701;28;20222;-67
2022/05/14 06:19:12;;;;;;;3.10;1.60;;;11.40;99.90;;;;;;4196100;28;20266;-67
2022/05/14 06:21:13;;;;;;;1.90;1.53;;;11.40;99.90;;;;;;4195655;28;20223;-67
2022/05/14 06:23:14;;;;;;;4.50;1.67;;;11.40;99.90;;;;;;4195645;28;20787;-67
2022/05/14 06:25:14;;;;;;;4.53;1.60;;;11.60;99.90;;;;;;4195534;28;20278;-67
2022/05/14 06:27:15;;;;;;;3.00;1.40;;;11.70;99.90;;;;;;4195241;28;20184;-68
2022/05/14 06:29:16;;;;;;;1.97;1.50;;;11.80;99.90;;;;;;4195679;28;20214;-68
2022/05/14 06:31:16;;;;;;;3.60;1.50;;;12.00;98.90;;;;;;4195430;28;20287;-68
2022/05/14 06:33:18;;;;;;;4.40;1.60;;;12.00;98.30;;;;;;4195508;28;20909;-68
2022/05/14 06:35:18;;;;;;;2.77;1.50;;;12.00;99.20;;;;;;4195285;28;20692;-68
2022/05/14 06:37:19;;;;;;;2.23;1.70;;;12.20;98.50;;;;;;4195172;28;20180;-67
2022/05/14 06:39:20;;;;;;;2.53;1.40;;;12.20;98.50;;;;;;4195403;28;20205;-68
2022/05/14 06:41:21;;;;;;;2.73;1.60;;;12.30;99.00;;;;;;4195379;28;20203;-68
2022/05/14 06:43:21;;;;;;;3.30;1.60;;;12.40;98.40;;;;;;4195317;28;20596;-68
2022/05/14 06:45:22;;;;;;;2.43;1.73;;;12.60;98.40;;;;;;4194763;28;20550;-67
2022/05/14 06:47:23;;;;;;;4.17;1.77;;;12.70;97.90;;;;;;4195378;28;20175;-68
2022/05/14 06:49:24;;;;;;;4.60;1.60;;;12.80;97.80;;;;;;4195146;28;20559;-68
2022/05/14 06:51:27;;;;;;;3.77;1.30;;;13.00;97.70;;;;;;4194539;28;20199;-68
2022/05/14 06:53:29;;;;;;;2.00;1.30;;;13.30;96.60;;;;;;4195339;28;20172;-67
2022/05/14 06:55:35;;;;;;;3.87;1.50;;;13.30;96.10;;;;;;4194553;28;20222;-68
2022/05/14 06:57:36;;;;;;;2.33;1.40;;;13.50;96.40;;;;;;4195275;28;20175;-68
2022/05/14 06:59:37;;;;;;;3.60;1.30;;;13.60;97.30;;;;;;4195195;28;20702;-67
2022/05/14 07:01:39;;;;;;;3.07;1.43;;;13.80;96.70;;;;;;4195491;28;20640;-67
2022/05/14 07:08:17;;;;;;;4.40;1.17;;;14.40;84.20;;;;;;4195212;28;20221;-67
2022/05/14 07:10:18;;;;;;;2.03;1.10;;;14.50;90.20;;;;;;4194998;28;20585;-67
2022/05/14 07:12:19;;;;;;;4.27;1.63;;;14.60;83.80;;;;;;4195022;28;20176;-67
2022/05/14 07:14:20;;;;;;;2.83;1.17;;;14.80;80.50;;;;;;4195380;28;20172;-67
2022/05/14 07:16:21;;;;;;;3.40;1.10;;;14.70;87.00;;;;;;4194556;28;20183;-67
2022/05/14 07:18:21;;;;;;;2.80;1.00;;;14.60;89.60;;;;;;4194951;28;20183;-67
2022/05/14 07:20:24;;;;;;;2.03;1.40;;;14.70;90.80;;;;;;4194787;28;20202;-67
2022/05/14 07:22:24;;;;;;;2.87;1.30;;;14.80;90.80;;;;;;4195204;28;20195;-67
2022/05/14 07:24:28;;;;;;;2.97;1.10;;;15.00;86.00;;;;;;4195054;28;20182;-67
2022/05/14 07:26:30;;;;;;;1.63;1.10;;;15.30;87.00;;;;;;4194248;28;20191;-67
2022/05/14 07:28:33;;;;;;;2.80;1.43;;;15.50;79.90;;;;;;4194909;28;20701;-67
2022/05/14 07:30:33;;;;;;;1.60;1.27;;;15.50;77.30;;;;;;4195233;28;20201;-67
2022/05/14 07:32:34;;;;;;;2.77;1.43;;;15.70;74.80;;;;;;4195040;28;20180;-67
2022/05/14 07:34:34;;;;;;;2.03;1.10;;;15.90;74.10;;;;;;4194784;28;20606;-67
2022/05/14 07:36:57;;;;;;;1.73;1.00;;;15.60;70.90;;;;;;4194282;28;20258;-67
2022/05/14 07:39:01;;;;;;;2.77;1.23;;;15.80;71.70;;;;;;4195068;28;20179;-67
2022/05/14 07:41:03;;;;;;;4.00;1.50;;;16.00;66.20;;;;;;4195256;28;20349;-67
2022/05/14 07:43:10;;;;;;;2.50;1.40;;;16.20;66.80;;;;;;4194887;28;20179;-67
2022/05/14 07:45:15;;;;;;;3.40;1.10;;;16.20;66.80;;;;;;4194747;28;20178;-67
2022/05/14 07:47:16;;;;;;;2.40;1.20;;;16.40;64.50;;;;;;4194458;28;20183;-67
2022/05/14 07:49:18;;;;;;;2.70;1.00;;;16.70;62.40;;;;;;4194795;28;20210;-67
2022/05/14 07:51:18;;;;;;;3.43;1.20;;;16.90;61.40;;;;;;4194955;28;20215;-67
2022/05/14 07:53:20;;;;;;;2.97;1.10;;;16.50;59.50;;;;;;4194852;28;20199;-67
2022/05/14 07:55:20;;;;;;;3.77;1.50;;;16.30;60.90;;;;;;4194074;28;20266;-67
2022/05/14 07:57:21;;;;;;;2.50;1.30;;;16.50;63.60;;;;;;4194671;28;20201;-67
2022/05/14 07:59:22;;;;;;;4.83;2.07;;;16.60;62.30;;;;;;4194664;28;20221;-67
2022/05/14 08:01:22;;;;;;;3.20;1.53;;;16.80;63.90;;;;;;4194708;28;20207;-67
2022/05/14 08:03:24;;;;;;;3.33;1.33;;;16.80;59.40;;;;;;4197414;28;20184;-67
2022/05/14 08:05:24;;;;;;;3.30;1.60;;;16.90;60.60;;;;;;4197325;28;20187;-67
2022/05/14 08:07:26;;;;;;;3.00;1.50;;;17.00;59.20;;;;;;4198039;28;20674;-67
2022/05/14 08:09:27;;;;;;;3.03;1.67;;;16.90;59.90;;;;;;4197965;28;20211;-67
2022/05/14 08:11:27;;;;;;;2.40;1.20;;;16.80;59.60;;;;;;4197891;28;20582;-67
2022/05/14 08:13:29;;;;;;;2.60;1.30;;;16.90;60.10;;;;;;4198001;28;20179;-67
2022/05/14 08:15:29;;;;;;;3.40;1.50;;;16.60;60.20;;;;;;4197268;28;20206;-66
2022/05/14 08:17:30;;;;;;;3.57;1.50;;;16.50;61.80;;;;;;4197958;28;20179;-67
2022/05/14 08:19:30;;;;;;;3.67;1.50;;;16.60;61.20;;;;;;4197969;28;20179;-67
2022/05/14 08:26:09;;;;;;;5.27;1.60;;;17.10;59.90;;;;;;4196967;28;20221;-67
2022/05/14 08:28:10;;;;;;;4.87;1.20;;;17.30;59.00;;;;;;4197461;28;20207;-67
2022/05/14 08:30:20;;;;;;;3.83;1.40;;;17.70;57.90;;;;;;4196102;28;20198;-67
2022/05/14 08:32:21;;;;;;;3.80;1.23;;;17.90;55.80;;;;;;4197472;28;20678;-67
2022/05/14 08:34:22;;;;;;;4.70;1.60;;;18.00;56.10;;;;;;4197431;28;20200;-67
2022/05/14 08:36:22;;;;;;;3.20;1.40;;;17.90;55.50;;;;;;4196787;28;20179;-67
2022/05/14 08:38:23;;;;;;;3.47;1.20;;;18.00;61.10;;;;;;4197529;28;20183;-67
2022/05/14 08:40:30;;;;;;;6.00;1.40;;;18.20;55.60;;;;;;4197601;28;20191;-67
2022/05/14 08:42:33;;;;;;;2.40;1.40;;;18.30;53.00;;;;;;4197474;28;20218;-67
2022/05/14 08:44:36;;;;;;;4.40;1.50;;;18.40;53.30;;;;;;4197462;28;20180;-67
2022/05/14 08:46:39;;;;;;;2.30;1.37;;;18.00;54.60;;;;;;4196671;28;20274;-67
2022/05/14 08:48:39;;;;;;;4.10;1.50;;;18.20;55.00;;;;;;4197079;28;20203;-67
2022/05/14 08:50:42;;;;;;;3.10;1.13;;;18.10;53.10;;;;;;4197570;28;20557;-67
2022/05/14 08:52:42;;;;;;;3.70;1.60;;;17.90;54.10;;;;;;4197275;28;20172;-67
2022/05/14 08:54:43;;;;;;;3.27;1.37;;;18.10;61.00;;;;;;4197300;28;20710;-68
2022/05/14 08:57:24;;;;;;;6.00;1.40;;;18.20;56.40;;;;;;4196561;28;20194;-67
2022/05/14 08:59:42;;;;;;;4.20;1.47;;;18.30;55.20;;;;;;4197246;28;20243;-67
2022/05/14 09:01:45;;;;;;;3.13;1.27;;;18.40;54.90;;;;;;4197206;28;20195;-67
2022/05/14 09:03:46;;;;;;;3.13;1.50;;;18.40;51.30;;;;;;4196708;28;20179;-67
2022/05/14 09:05:55;;;;;;;2.60;1.47;;;18.40;53.20;;;;;;4196328;28;20674;-67
2022/05/14 09:07:56;;;;;;;2.80;1.67;;;18.50;53.40;;;;;;4197014;28;20341;-67
2022/05/14 09:09:58;;;;;;;4.13;1.60;;;18.90;53.00;;;;;;4197088;28;20695;-67
2022/05/14 09:12:02;;;;;;;4.40;1.60;;;18.80;51.40;;;;;;4196861;28;20180;-67
2022/05/14 09:14:16;;;;;;;3.20;1.70;;;18.70;52.70;;;;;;4196000;28;20180;-67
2022/05/14 09:16:35;;;;;;;3.33;2.00;;;18.50;55.20;;;;;;4196215;28;20191;-67
2022/05/14 09:18:48;;;;;;;3.80;2.10;;;18.40;54.60;;;;;;4197068;28;20176;-71
2022/05/14 09:20:52;;;;;;;3.00;1.70;;;18.40;54.10;;;;;;4196806;28;20577;-67
2022/05/14 09:22:55;;;;;;;3.00;1.47;;;18.90;52.20;;;;;;4196919;28;20172;-67
2022/05/14 09:25:05;;;;;;;2.50;1.50;;;19.20;51.80;;;;;;4196325;28;20179;-68
2022/05/14 09:27:20;;;;;;;6.30;2.60;;;19.50;54.30;;;;;;4196348;28;20229;-67
2022/05/14 09:29:21;;;;;;;2.53;2.10;;;19.70;50.30;;;;;;4196655;28;20203;-68
2022/05/14 09:31:34;;;;;;;5.10;2.53;;;19.70;49.20;;;;;;4196567;28;20206;-67
2022/05/14 09:33:40;;;;;;;5.40;1.60;;;19.70;54.50;;;;;;4196649;28;20555;-67
2022/05/14 09:35:41;;;;;;;1.93;1.40;;;20.10;47.00;;;;;;4196021;28;20170;-67
2022/05/14 09:37:42;;;;;;;3.93;1.60;;;20.00;49.50;;;;;;4196495;28;20242;-67
2022/05/14 09:39:43;;;;;;;7.87;1.60;;;20.40;51.10;;;;;;4196621;28;20183;-67
2022/05/14 09:41:49;;;;;;;4.57;1.53;;;20.70;49.60;;;;;;4196744;28;20192;-67
2022/05/14 09:43:54;;;;;;;5.00;1.60;;;21.10;47.60;;;;;;4196809;28;20168;-67
2022/05/14 09:46:23;;;;;;;2.10;1.60;;;21.00;46.40;;;;;;4195794;28;20926;-67
2022/05/14 09:48:32;;;;;;;2.40;1.50;;;20.90;45.40;;;;;;4196403;28;20218;-67
2022/05/14 09:50:34;;;;;;;4.20;1.60;;;20.80;47.50;;;;;;4196378;28;20194;-67
2022/05/14 09:52:36;;;;;;;7.07;1.50;;;20.80;46.10;;;;;;4196481;28;20711;-67
2022/05/14 09:54:42;;;;;;;3.43;1.60;;;20.70;44.40;;;;;;4196180;28;20187;-67
2022/05/14 09:57:20;;;;;;;2.10;1.47;;;20.50;45.00;;;;;;4195554;28;20186;-68
2022/05/14 09:59:32;;;;;;;4.30;1.60;;;20.70;44.00;;;;;;4196269;28;20172;-67
2022/05/14 10:01:33;;;;;;;2.60;1.40;;;20.70;43.50;;;;;;4197408;28;20233;-67
2022/05/14 10:03:54;;;;;;;2.70;1.60;;;21.10;43.10;;;;;;4197264;28;20667;-67
2022/05/14 10:06:06;;;;;;;2.07;1.50;;;21.10;43.70;;;;;;4196865;28;20175;-67
2022/05/14 10:08:20;;;;;;;2.70;1.50;;;21.20;43.50;;;;;;4197492;28;20210;-67
2022/05/14 10:10:40;;;;;;;3.80;1.40;;;21.10;41.00;;;;;;4197254;28;20176;-67
2022/05/14 10:12:45;;;;;;;3.27;1.40;;;21.30;40.60;;;;;;4197668;28;20182;-68
2022/05/14 10:15:27;;;;;;;2.93;1.40;;;21.60;39.30;;;;;;4197699;28;20667;-67
2022/05/14 10:17:56;;;;;;;2.10;1.40;;;21.80;44.30;;;;;;4197667;28;20472;-68
2022/05/14 10:20:05;;;;;;;3.67;1.60;;;22.10;41.80;;;;;;4197525;28;20160;-67
2022/05/14 10:22:21;;;;;;;2.60;1.43;;;22.00;42.80;;;;;;4196265;28;20195;-67
2022/05/14 10:27:05;;;;;;;3.20;1.63;;;21.60;39.90;;;;;;4197125;28;20602;-68
2022/05/14 10:29:36;;;;;;;2.53;1.60;;;21.80;43.60;;;;;;4197470;28;20227;-67
2022/05/14 10:31:42;;;;;;;1.90;1.57;;;22.50;41.60;;;;;;4197551;28;20198;-68
2022/05/14 10:33:43;;;;;;;3.67;1.70;;;22.50;40.60;;;;;;4197374;28;20164;-67
2022/05/14 10:35:49;;;;;;;2.70;1.60;;;22.90;38.40;;;;;;4196634;28;20184;-68
2022/05/14 10:37:56;;;;;;;2.57;1.50;;;23.80;37.10;;;;;;4197077;28;20180;-68
2022/05/14 10:40:16;;;;;;;4.03;1.60;;;24.70;36.10;;;;;;4197030;28;20198;-68
2022/05/14 10:42:37;;;;;;;5.00;1.77;;;25.50;34.60;;;;;;4197239;28;20561;-68
2022/05/14 10:44:51;;;;;;;2.20;1.57;;;26.70;31.70;;;;;;4197076;28;20186;-68
2022/05/14 10:46:53;;;;;;;3.17;1.83;;;26.20;30.80;;;;;;4196554;28;20183;-68
2022/05/14 10:49:02;;;;;;;5.17;1.90;;;25.70;34.40;;;;;;4197149;28;20211;-67
2022/05/14 10:51:06;;;;;;;3.20;1.67;;;25.50;32.90;;;;;;4197186;28;20199;-68
2022/05/14 10:53:08;;;;;;;2.07;1.70;;;25.10;36.50;;;;;;4197069;28;20180;-68
2022/05/14 10:55:30;;;;;;;3.17;1.67;;;25.60;35.30;;;;;;4196820;28;20248;-68
2022/05/14 10:57:41;;;;;;;3.03;1.60;;;26.90;32.80;;;;;;4197383;28;20168;-68
2022/05/14 10:59:47;;;;;;;4.40;1.53;;;27.10;33.40;;;;;;4197086;28;20180;-67
2022/05/14 11:01:53;;;;;;;1.93;1.43;;;26.80;35.10;;;;;;4197048;28;20644;-68
2022/05/14 11:04:18;;;;;;;3.80;1.90;;;27.30;31.90;;;;;;4197406;28;20190;-68
2022/05/14 11:06:29;;;;;;;2.57;1.60;;;27.90;30.00;;;;;;4195864;28;20206;-68
2022/05/14 11:08:36;;;;;;;2.47;1.50;;;26.70;30.40;;;;;;4196801;28;20289;-68